sensor_id;sensor_type;location;lat;lon;timestamp;P1;durP1;ratioP1;P2;durP2;ratioP2
84993;SDS011;75309;44.830;20.460;2024-03-23T00:54:51;33.30;;;17.90;;
84993;SDS011;75309;44.830;20.460;2024-03-23T00:57:19;30.50;;;16.90;;
84993;SDS011;75309;44.830;20.460;2024-03-23T00:59:47;32.70;;;18.10;;
84993;SDS011;75309;44.830;20.460;2024-03-23T01:02:14;27.70;;;15.80;;
84993;SDS011;75309;44.830;20.460;2024-03-23T01:04:42;27.20;;;15.70;;
84993;SDS011;75309;44.830;20.460;2024-03-23T01:07:10;27.30;;;15.10;;
84993;SDS011;75309;44.830;20.460;2024-03-23T01:09:38;29.70;;;16.70;;
84993;SDS011;75309;44.830;20.460;2024-03-23T01:12:06;27.90;;;15.90;;
84993;SDS011;75309;44.830;20.460;2024-03-23T01:14:34;28.20;;;15.40;;
84993;SDS011;75309;44.830;20.460;2024-03-23T01:17:03;29.70;;;15.80;;
84993;SDS011;75309;44.830;20.460;2024-03-23T01:19:31;26.90;;;15.30;;
84993;SDS011;75309;44.830;20.460;2024-03-23T01:21:58;29.50;;;15.30;;
84993;SDS011;75309;44.830;20.460;2024-03-23T01:24:26;27.70;;;16.00;;
84993;SDS011;75309;44.830;20.460;2024-03-23T01:26:54;30.00;;;15.30;;
84993;SDS011;75309;44.830;20.460;2024-03-23T01:29:22;29.50;;;15.80;;
84993;SDS011;75309;44.830;20.460;2024-03-23T01:31:50;28.20;;;15.40;;
84993;SDS011;75309;44.830;20.460;2024-03-23T01:34:17;32.70;;;16.80;;
84993;SDS011;75309;44.830;20.460;2024-03-23T01:36:47;29.00;;;16.50;;
84993;SDS011;75309;44.830;20.460;2024-03-23T01:39:14;28.90;;;17.00;;
84993;SDS011;75309;44.830;20.460;2024-03-23T01:41:42;29.60;;;16.50;;
84993;SDS011;75309;44.830;20.460;2024-03-23T01:44:10;29.40;;;16.70;;
84993;SDS011;75309;44.830;20.460;2024-03-23T01:46:38;28.00;;;16.20;;
84993;SDS011;75309;44.830;20.460;2024-03-23T01:49:06;31.20;;;17.30;;
84993;SDS011;75309;44.830;20.460;2024-03-23T01:51:36;33.20;;;17.10;;
84993;SDS011;75309;44.830;20.460;2024-03-23T01:54:04;29.70;;;16.40;;
84993;SDS011;75309;44.830;20.460;2024-03-23T01:56:34;33.00;;;17.80;;
84993;SDS011;75309;44.830;20.460;2024-03-23T01:59:04;31.60;;;16.10;;
84993;SDS011;75309;44.830;20.460;2024-03-23T02:01:36;31.40;;;17.30;;
84993;SDS011;75309;44.830;20.460;2024-03-23T02:04:05;30.80;;;17.80;;
84993;SDS011;75309;44.830;20.460;2024-03-23T02:06:34;31.70;;;16.90;;
84993;SDS011;75309;44.830;20.460;2024-03-23T02:09:03;29.60;;;16.10;;
84993;SDS011;75309;44.830;20.460;2024-03-23T02:11:31;32.10;;;17.20;;
84993;SDS011;75309;44.830;20.460;2024-03-23T02:13:59;33.00;;;17.30;;
84993;SDS011;75309;44.830;20.460;2024-03-23T02:16:27;30.20;;;17.40;;
84993;SDS011;75309;44.830;20.460;2024-03-23T02:18:54;28.60;;;16.20;;
84993;SDS011;75309;44.830;20.460;2024-03-23T02:21:23;27.40;;;16.10;;
84993;SDS011;75309;44.830;20.460;2024-03-23T02:23:50;31.30;;;17.00;;
84993;SDS011;75309;44.830;20.460;2024-03-23T02:26:18;30.30;;;17.90;;
84993;SDS011;75309;44.830;20.460;2024-03-23T02:28:46;28.00;;;16.90;;
84993;SDS011;75309;44.830;20.460;2024-03-23T02:31:14;28.00;;;16.90;;
84993;SDS011;75309;44.830;20.460;2024-03-23T02:33:42;30.70;;;16.70;;
84993;SDS011;75309;44.830;20.460;2024-03-23T02:36:10;29.00;;;16.70;;
84993;SDS011;75309;44.830;20.460;2024-03-23T02:38:39;35.00;;;17.00;;
84993;SDS011;75309;44.830;20.460;2024-03-23T02:41:07;29.20;;;16.60;;
84993;SDS011;75309;44.830;20.460;2024-03-23T02:46:02;26.10;;;15.60;;
84993;SDS011;75309;44.830;20.460;2024-03-23T02:51:04;28.10;;;14.60;;
84993;SDS011;75309;44.830;20.460;2024-03-23T02:53:32;30.60;;;17.30;;
84993;SDS011;75309;44.830;20.460;2024-03-23T02:56:01;30.90;;;16.90;;
84993;SDS011;75309;44.830;20.460;2024-03-23T02:58:29;31.60;;;16.60;;
84993;SDS011;75309;44.830;20.460;2024-03-23T03:00:56;31.00;;;17.40;;
84993;SDS011;75309;44.830;20.460;2024-03-23T03:03:24;28.40;;;15.80;;
84993;SDS011;75309;44.830;20.460;2024-03-23T03:05:56;30.20;;;16.80;;
84993;SDS011;75309;44.830;20.460;2024-03-23T03:08:24;31.90;;;17.70;;
84993;SDS011;75309;44.830;20.460;2024-03-23T03:10:52;31.60;;;16.00;;
84993;SDS011;75309;44.830;20.460;2024-03-23T03:13:19;27.00;;;16.50;;
84993;SDS011;75309;44.830;20.460;2024-03-23T03:15:48;29.30;;;16.30;;
84993;SDS011;75309;44.830;20.460;2024-03-23T03:18:16;27.60;;;15.90;;
84993;SDS011;75309;44.830;20.460;2024-03-23T03:20:44;30.40;;;17.30;;
84993;SDS011;75309;44.830;20.460;2024-03-23T03:23:12;30.60;;;16.90;;
84993;SDS011;75309;44.830;20.460;2024-03-23T03:25:40;29.20;;;15.90;;
84993;SDS011;75309;44.830;20.460;2024-03-23T03:28:07;31.50;;;16.00;;
84993;SDS011;75309;44.830;20.460;2024-03-23T03:30:35;30.80;;;17.20;;
84993;SDS011;75309;44.830;20.460;2024-03-23T03:33:03;30.40;;;17.00;;
84993;SDS011;75309;44.830;20.460;2024-03-23T03:35:31;30.80;;;17.40;;
84993;SDS011;75309;44.830;20.460;2024-03-23T03:37:59;32.50;;;16.70;;
84993;SDS011;75309;44.830;20.460;2024-03-23T03:40:26;32.00;;;17.80;;
84993;SDS011;75309;44.830;20.460;2024-03-23T03:42:54;30.70;;;16.80;;
84993;SDS011;75309;44.830;20.460;2024-03-23T03:45:25;33.60;;;16.90;;
84993;SDS011;75309;44.830;20.460;2024-03-23T03:47:53;33.70;;;17.90;;
84993;SDS011;75309;44.830;20.460;2024-03-23T03:50:21;33.90;;;18.20;;
84993;SDS011;75309;44.830;20.460;2024-03-23T03:52:49;36.60;;;20.30;;
84993;SDS011;75309;44.830;20.460;2024-03-23T03:55:18;34.80;;;20.30;;
84993;SDS011;75309;44.830;20.460;2024-03-23T03:57:45;32.00;;;19.40;;
84993;SDS011;75309;44.830;20.460;2024-03-23T04:00:13;36.60;;;20.50;;
84993;SDS011;75309;44.830;20.460;2024-03-23T04:02:42;36.20;;;21.10;;
84993;SDS011;75309;44.830;20.460;2024-03-23T04:05:11;36.50;;;20.40;;
84993;SDS011;75309;44.830;20.460;2024-03-23T04:07:40;36.50;;;21.00;;
84993;SDS011;75309;44.830;20.460;2024-03-23T04:10:09;36.80;;;20.60;;
84993;SDS011;75309;44.830;20.460;2024-03-23T04:12:37;37.40;;;21.60;;
84993;SDS011;75309;44.830;20.460;2024-03-23T04:15:05;37.80;;;22.00;;
84993;SDS011;75309;44.830;20.460;2024-03-23T04:17:33;38.80;;;21.70;;
84993;SDS011;75309;44.830;20.460;2024-03-23T04:20:04;36.10;;;21.60;;
84993;SDS011;75309;44.830;20.460;2024-03-23T04:22:36;37.10;;;20.70;;
84993;SDS011;75309;44.830;20.460;2024-03-23T04:25:05;34.50;;;20.20;;
84993;SDS011;75309;44.830;20.460;2024-03-23T04:27:34;36.20;;;21.10;;
84993;SDS011;75309;44.830;20.460;2024-03-23T04:30:02;37.40;;;21.70;;
84993;SDS011;75309;44.830;20.460;2024-03-23T04:32:31;39.00;;;20.70;;
84993;SDS011;75309;44.830;20.460;2024-03-23T04:34:59;37.20;;;21.80;;
84993;SDS011;75309;44.830;20.460;2024-03-23T04:37:27;36.50;;;21.00;;
84993;SDS011;75309;44.830;20.460;2024-03-23T04:39:55;35.60;;;21.60;;
84993;SDS011;75309;44.830;20.460;2024-03-23T04:42:22;37.60;;;20.90;;
84993;SDS011;75309;44.830;20.460;2024-03-23T04:44:50;35.60;;;20.90;;
84993;SDS011;75309;44.830;20.460;2024-03-23T04:47:21;35.50;;;21.20;;
84993;SDS011;75309;44.830;20.460;2024-03-23T04:49:50;38.60;;;22.00;;
84993;SDS011;75309;44.830;20.460;2024-03-23T04:52:18;38.60;;;22.50;;
84993;SDS011;75309;44.830;20.460;2024-03-23T04:54:46;39.30;;;24.10;;
84993;SDS011;75309;44.830;20.460;2024-03-23T04:57:13;38.10;;;21.80;;
84993;SDS011;75309;44.830;20.460;2024-03-23T04:59:41;41.70;;;22.70;;
84993;SDS011;75309;44.830;20.460;2024-03-23T05:02:09;36.40;;;22.20;;
84993;SDS011;75309;44.830;20.460;2024-03-23T05:04:38;40.00;;;24.10;;
84993;SDS011;75309;44.830;20.460;2024-03-23T05:07:08;38.50;;;21.70;;
84993;SDS011;75309;44.830;20.460;2024-03-23T05:09:36;36.60;;;21.40;;
84993;SDS011;75309;44.830;20.460;2024-03-23T05:12:04;36.20;;;21.50;;
84993;SDS011;75309;44.830;20.460;2024-03-23T05:14:32;32.80;;;20.40;;
84993;SDS011;75309;44.830;20.460;2024-03-23T05:19:28;42.90;;;21.60;;
84993;SDS011;75309;44.830;20.460;2024-03-23T05:21:56;35.00;;;20.90;;
84993;SDS011;75309;44.830;20.460;2024-03-23T05:24:24;39.20;;;22.30;;
84993;SDS011;75309;44.830;20.460;2024-03-23T05:26:51;39.70;;;22.10;;
84993;SDS011;75309;44.830;20.460;2024-03-23T05:29:19;38.80;;;22.60;;
84993;SDS011;75309;44.830;20.460;2024-03-23T05:31:49;40.40;;;22.40;;
84993;SDS011;75309;44.830;20.460;2024-03-23T05:34:19;38.10;;;22.70;;
84993;SDS011;75309;44.830;20.460;2024-03-23T05:36:46;38.40;;;22.80;;
84993;SDS011;75309;44.830;20.460;2024-03-23T05:39:14;37.50;;;21.20;;
84993;SDS011;75309;44.830;20.460;2024-03-23T05:41:44;34.30;;;21.40;;
84993;SDS011;75309;44.830;20.460;2024-03-23T05:44:11;35.90;;;22.80;;
84993;SDS011;75309;44.830;20.460;2024-03-23T05:46:39;40.50;;;23.10;;
84993;SDS011;75309;44.830;20.460;2024-03-23T05:49:07;34.30;;;22.10;;
84993;SDS011;75309;44.830;20.460;2024-03-23T05:51:37;37.70;;;23.00;;
84993;SDS011;75309;44.830;20.460;2024-03-23T05:54:05;42.20;;;24.00;;
84993;SDS011;75309;44.830;20.460;2024-03-23T05:56:33;38.60;;;22.70;;
84993;SDS011;75309;44.830;20.460;2024-03-23T05:59:01;44.40;;;24.60;;
84993;SDS011;75309;44.830;20.460;2024-03-23T06:01:30;42.00;;;23.70;;
84993;SDS011;75309;44.830;20.460;2024-03-23T06:04:00;43.50;;;24.00;;
84993;SDS011;75309;44.830;20.460;2024-03-23T06:06:28;40.50;;;22.40;;
84993;SDS011;75309;44.830;20.460;2024-03-23T06:08:57;38.00;;;22.70;;
84993;SDS011;75309;44.830;20.460;2024-03-23T06:11:25;37.00;;;20.50;;
84993;SDS011;75309;44.830;20.460;2024-03-23T06:13:54;36.70;;;21.50;;
84993;SDS011;75309;44.830;20.460;2024-03-23T06:16:22;38.20;;;21.90;;
84993;SDS011;75309;44.830;20.460;2024-03-23T06:18:54;37.20;;;22.40;;
84993;SDS011;75309;44.830;20.460;2024-03-23T06:21:24;38.70;;;21.60;;
84993;SDS011;75309;44.830;20.460;2024-03-23T06:23:52;38.20;;;21.50;;
84993;SDS011;75309;44.830;20.460;2024-03-23T06:26:20;37.90;;;21.10;;
84993;SDS011;75309;44.830;20.460;2024-03-23T06:28:48;32.60;;;19.20;;
84993;SDS011;75309;44.830;20.460;2024-03-23T06:31:16;33.50;;;20.40;;
84993;SDS011;75309;44.830;20.460;2024-03-23T06:33:45;33.80;;;20.80;;
84993;SDS011;75309;44.830;20.460;2024-03-23T06:36:13;33.00;;;20.30;;
84993;SDS011;75309;44.830;20.460;2024-03-23T06:38:43;38.50;;;20.50;;
84993;SDS011;75309;44.830;20.460;2024-03-23T06:41:12;35.20;;;19.50;;
84993;SDS011;75309;44.830;20.460;2024-03-23T06:43:40;33.60;;;19.40;;
84993;SDS011;75309;44.830;20.460;2024-03-23T06:46:07;32.80;;;18.90;;
84993;SDS011;75309;44.830;20.460;2024-03-23T06:48:35;36.60;;;20.40;;
84993;SDS011;75309;44.830;20.460;2024-03-23T06:51:04;32.30;;;19.80;;
84993;SDS011;75309;44.830;20.460;2024-03-23T06:53:32;31.70;;;19.00;;
84993;SDS011;75309;44.830;20.460;2024-03-23T06:56:00;33.30;;;19.20;;
84993;SDS011;75309;44.830;20.460;2024-03-23T06:58:28;34.50;;;19.90;;
84993;SDS011;75309;44.830;20.460;2024-03-23T07:00:56;34.00;;;20.20;;
84993;SDS011;75309;44.830;20.460;2024-03-23T07:03:23;34.00;;;19.00;;
84993;SDS011;75309;44.830;20.460;2024-03-23T07:05:57;29.30;;;18.80;;
84993;SDS011;75309;44.830;20.460;2024-03-23T07:08:26;35.50;;;19.70;;
84993;SDS011;75309;44.830;20.460;2024-03-23T07:10:53;35.00;;;19.70;;
84993;SDS011;75309;44.830;20.460;2024-03-23T07:13:22;33.30;;;19.50;;
84993;SDS011;75309;44.830;20.460;2024-03-23T07:15:53;32.10;;;18.00;;
84993;SDS011;75309;44.830;20.460;2024-03-23T07:18:23;31.60;;;18.10;;
84993;SDS011;75309;44.830;20.460;2024-03-23T07:20:55;28.90;;;17.50;;
84993;SDS011;75309;44.830;20.460;2024-03-23T07:23:27;32.00;;;17.80;;
84993;SDS011;75309;44.830;20.460;2024-03-23T07:26:02;31.00;;;18.60;;
84993;SDS011;75309;44.830;20.460;2024-03-23T07:28:32;29.30;;;18.20;;
84993;SDS011;75309;44.830;20.460;2024-03-23T07:33:32;31.80;;;18.20;;
84993;SDS011;75309;44.830;20.460;2024-03-23T07:36:00;26.40;;;15.30;;
84993;SDS011;75309;44.830;20.460;2024-03-23T07:38:29;26.10;;;16.70;;
84993;SDS011;75309;44.830;20.460;2024-03-23T07:41:17;28.70;;;16.50;;
84993;SDS011;75309;44.830;20.460;2024-03-23T07:43:46;26.60;;;15.30;;
84993;SDS011;75309;44.830;20.460;2024-03-23T07:46:15;26.30;;;15.90;;
84993;SDS011;75309;44.830;20.460;2024-03-23T07:48:43;29.50;;;17.20;;
84993;SDS011;75309;44.830;20.460;2024-03-23T07:51:21;29.00;;;17.40;;
84993;SDS011;75309;44.830;20.460;2024-03-23T07:53:50;29.90;;;19.00;;
84993;SDS011;75309;44.830;20.460;2024-03-23T07:56:18;33.60;;;18.60;;
84993;SDS011;75309;44.830;20.460;2024-03-23T07:58:47;33.90;;;19.70;;
84993;SDS011;75309;44.830;20.460;2024-03-23T08:01:16;31.50;;;17.00;;
84993;SDS011;75309;44.830;20.460;2024-03-23T08:03:45;30.90;;;17.30;;
84993;SDS011;75309;44.830;20.460;2024-03-23T08:06:16;26.30;;;15.90;;
84993;SDS011;75309;44.830;20.460;2024-03-23T08:08:47;25.40;;;14.80;;
84993;SDS011;75309;44.830;20.460;2024-03-23T08:11:16;21.80;;;13.90;;
84993;SDS011;75309;44.830;20.460;2024-03-23T08:13:44;24.60;;;14.30;;
84993;SDS011;75309;44.830;20.460;2024-03-23T08:16:13;27.00;;;14.70;;
84993;SDS011;75309;44.830;20.460;2024-03-23T08:18:41;22.30;;;13.60;;
84993;SDS011;75309;44.830;20.460;2024-03-23T08:21:10;23.50;;;14.40;;
84993;SDS011;75309;44.830;20.460;2024-03-23T08:23:38;24.70;;;15.50;;
84993;SDS011;75309;44.830;20.460;2024-03-23T08:26:07;29.80;;;16.30;;
84993;SDS011;75309;44.830;20.460;2024-03-23T08:28:36;23.00;;;13.40;;
84993;SDS011;75309;44.830;20.460;2024-03-23T08:31:08;19.60;;;12.20;;
84993;SDS011;75309;44.830;20.460;2024-03-23T08:33:38;20.20;;;11.70;;
84993;SDS011;75309;44.830;20.460;2024-03-23T08:36:07;19.00;;;9.80;;
84993;SDS011;75309;44.830;20.460;2024-03-23T08:38:35;18.60;;;10.40;;
84993;SDS011;75309;44.830;20.460;2024-03-23T08:41:07;19.20;;;9.00;;
84993;SDS011;75309;44.830;20.460;2024-03-23T08:43:37;15.10;;;8.70;;
84993;SDS011;75309;44.830;20.460;2024-03-23T08:46:10;13.90;;;9.20;;
84993;SDS011;75309;44.830;20.460;2024-03-23T08:48:46;13.80;;;7.90;;
84993;SDS011;75309;44.830;20.460;2024-03-23T08:51:16;15.70;;;9.10;;
84993;SDS011;75309;44.830;20.460;2024-03-23T08:53:45;13.90;;;7.60;;
84993;SDS011;75309;44.830;20.460;2024-03-23T08:56:13;16.10;;;7.70;;
84993;SDS011;75309;44.830;20.460;2024-03-23T08:58:41;12.80;;;7.10;;
84993;SDS011;75309;44.830;20.460;2024-03-23T09:01:09;15.10;;;7.10;;
84993;SDS011;75309;44.830;20.460;2024-03-23T09:03:38;12.30;;;6.70;;
84993;SDS011;75309;44.830;20.460;2024-03-23T09:06:09;14.70;;;7.20;;
84993;SDS011;75309;44.830;20.460;2024-03-23T09:08:38;11.90;;;6.40;;
84993;SDS011;75309;44.830;20.460;2024-03-23T09:11:09;12.80;;;6.90;;
84993;SDS011;75309;44.830;20.460;2024-03-23T09:13:39;11.40;;;6.10;;
84993;SDS011;75309;44.830;20.460;2024-03-23T09:16:10;10.60;;;5.80;;
84993;SDS011;75309;44.830;20.460;2024-03-23T09:18:38;11.30;;;6.00;;
84993;SDS011;75309;44.830;20.460;2024-03-23T09:21:12;11.30;;;5.20;;
84993;SDS011;75309;44.830;20.460;2024-03-23T09:23:44;11.90;;;5.70;;
84993;SDS011;75309;44.830;20.460;2024-03-23T09:26:13;9.60;;;4.70;;
84993;SDS011;75309;44.830;20.460;2024-03-23T09:28:40;9.60;;;4.80;;
84993;SDS011;75309;44.830;20.460;2024-03-23T09:31:09;7.80;;;4.40;;
84993;SDS011;75309;44.830;20.460;2024-03-23T09:33:42;8.90;;;4.30;;
84993;SDS011;75309;44.830;20.460;2024-03-23T09:36:10;9.70;;;4.60;;
84993;SDS011;75309;44.830;20.460;2024-03-23T09:38:41;7.90;;;4.00;;
84993;SDS011;75309;44.830;20.460;2024-03-23T09:43:37;8.70;;;4.70;;
84993;SDS011;75309;44.830;20.460;2024-03-23T09:46:04;9.40;;;3.90;;
84993;SDS011;75309;44.830;20.460;2024-03-23T09:48:36;8.20;;;3.70;;
84993;SDS011;75309;44.830;20.460;2024-03-23T09:51:05;10.00;;;4.20;;
84993;SDS011;75309;44.830;20.460;2024-03-23T09:53:36;8.20;;;3.90;;
84993;SDS011;75309;44.830;20.460;2024-03-23T09:56:05;9.90;;;4.40;;
84993;SDS011;75309;44.830;20.460;2024-03-23T09:58:37;7.40;;;3.70;;
84993;SDS011;75309;44.830;20.460;2024-03-23T10:01:05;7.90;;;3.90;;
84993;SDS011;75309;44.830;20.460;2024-03-23T10:03:44;9.40;;;4.00;;
84993;SDS011;75309;44.830;20.460;2024-03-23T10:06:13;7.90;;;3.40;;
84993;SDS011;75309;44.830;20.460;2024-03-23T10:08:41;7.70;;;3.30;;
84993;SDS011;75309;44.830;20.460;2024-03-23T10:11:15;8.00;;;4.00;;
84993;SDS011;75309;44.830;20.460;2024-03-23T10:13:44;8.30;;;3.10;;
84993;SDS011;75309;44.830;20.460;2024-03-23T10:16:20;7.80;;;4.10;;
84993;SDS011;75309;44.830;20.460;2024-03-23T10:18:50;7.20;;;3.90;;
84993;SDS011;75309;44.830;20.460;2024-03-23T10:23:46;6.50;;;3.70;;
84993;SDS011;75309;44.830;20.460;2024-03-23T10:31:30;7.80;;;3.60;;
84993;SDS011;75309;44.830;20.460;2024-03-23T10:34:00;9.20;;;3.60;;
84993;SDS011;75309;44.830;20.460;2024-03-23T10:36:29;8.10;;;3.50;;
84993;SDS011;75309;44.830;20.460;2024-03-23T10:38:57;8.30;;;3.80;;
84993;SDS011;75309;44.830;20.460;2024-03-23T10:41:28;7.30;;;2.90;;
84993;SDS011;75309;44.830;20.460;2024-03-23T10:43:58;5.90;;;2.70;;
84993;SDS011;75309;44.830;20.460;2024-03-23T10:46:31;8.10;;;2.70;;
84993;SDS011;75309;44.830;20.460;2024-03-23T10:48:59;6.30;;;2.70;;
84993;SDS011;75309;44.830;20.460;2024-03-23T10:53:55;6.40;;;2.20;;
84993;SDS011;75309;44.830;20.460;2024-03-23T10:56:24;4.80;;;1.90;;
84993;SDS011;75309;44.830;20.460;2024-03-23T10:58:57;6.40;;;2.60;;
84993;SDS011;75309;44.830;20.460;2024-03-23T11:03:52;7.00;;;2.60;;
84993;SDS011;75309;44.830;20.460;2024-03-23T11:06:33;5.30;;;2.50;;
84993;SDS011;75309;44.830;20.460;2024-03-23T11:09:03;6.00;;;2.50;;
84993;SDS011;75309;44.830;20.460;2024-03-23T11:11:32;6.30;;;2.80;;
84993;SDS011;75309;44.830;20.460;2024-03-23T11:14:01;6.10;;;2.60;;
84993;SDS011;75309;44.830;20.460;2024-03-23T11:17:08;5.40;;;2.70;;
84993;SDS011;75309;44.830;20.460;2024-03-23T11:19:37;6.40;;;2.60;;
84993;SDS011;75309;44.830;20.460;2024-03-23T11:22:05;8.70;;;2.40;;
84993;SDS011;75309;44.830;20.460;2024-03-23T11:24:34;5.00;;;2.30;;
84993;SDS011;75309;44.830;20.460;2024-03-23T11:27:02;6.00;;;2.70;;
84993;SDS011;75309;44.830;20.460;2024-03-23T11:29:43;7.00;;;2.90;;
84993;SDS011;75309;44.830;20.460;2024-03-23T11:32:12;7.80;;;3.20;;
84993;SDS011;75309;44.830;20.460;2024-03-23T11:34:40;6.80;;;2.90;;
84993;SDS011;75309;44.830;20.460;2024-03-23T11:37:08;6.00;;;2.70;;
84993;SDS011;75309;44.830;20.460;2024-03-23T11:39:37;7.30;;;2.40;;
84993;SDS011;75309;44.830;20.460;2024-03-23T11:44:33;5.90;;;2.10;;
84993;SDS011;75309;44.830;20.460;2024-03-23T11:47:07;5.20;;;2.20;;
84993;SDS011;75309;44.830;20.460;2024-03-23T11:49:36;6.40;;;2.40;;
84993;SDS011;75309;44.830;20.460;2024-03-23T11:52:08;6.70;;;2.50;;
84993;SDS011;75309;44.830;20.460;2024-03-23T11:54:36;7.20;;;2.80;;
84993;SDS011;75309;44.830;20.460;2024-03-23T11:57:07;5.70;;;2.50;;
84993;SDS011;75309;44.830;20.460;2024-03-23T11:59:40;5.90;;;2.70;;
84993;SDS011;75309;44.830;20.460;2024-03-23T12:02:10;7.70;;;3.00;;
84993;SDS011;75309;44.830;20.460;2024-03-23T12:04:41;5.60;;;2.60;;
84993;SDS011;75309;44.830;20.460;2024-03-23T12:09:38;6.70;;;2.70;;
84993;SDS011;75309;44.830;20.460;2024-03-23T12:14:36;7.30;;;3.00;;
84993;SDS011;75309;44.830;20.460;2024-03-23T12:17:07;6.70;;;2.50;;
84993;SDS011;75309;44.830;20.460;2024-03-23T12:19:40;6.90;;;2.80;;
84993;SDS011;75309;44.830;20.460;2024-03-23T12:22:09;5.40;;;2.30;;
84993;SDS011;75309;44.830;20.460;2024-03-23T12:24:37;5.70;;;2.80;;
84993;SDS011;75309;44.830;20.460;2024-03-23T12:27:06;5.40;;;3.00;;
84993;SDS011;75309;44.830;20.460;2024-03-23T12:29:34;8.20;;;2.90;;
84993;SDS011;75309;44.830;20.460;2024-03-23T12:32:02;7.00;;;2.90;;
84993;SDS011;75309;44.830;20.460;2024-03-23T12:34:32;5.80;;;2.80;;
84993;SDS011;75309;44.830;20.460;2024-03-23T12:37:03;5.50;;;2.60;;
84993;SDS011;75309;44.830;20.460;2024-03-23T12:39:31;6.30;;;3.00;;
84993;SDS011;75309;44.830;20.460;2024-03-23T12:42:02;8.50;;;3.40;;
84993;SDS011;75309;44.830;20.460;2024-03-23T12:44:30;5.70;;;2.90;;
84993;SDS011;75309;44.830;20.460;2024-03-23T12:46:59;6.40;;;3.00;;
84993;SDS011;75309;44.830;20.460;2024-03-23T12:49:26;5.90;;;2.80;;
84993;SDS011;75309;44.830;20.460;2024-03-23T12:51:55;6.10;;;2.70;;
84993;SDS011;75309;44.830;20.460;2024-03-23T12:54:24;6.50;;;3.10;;
84993;SDS011;75309;44.830;20.460;2024-03-23T12:56:52;7.40;;;3.30;;
84993;SDS011;75309;44.830;20.460;2024-03-23T12:59:23;7.00;;;3.10;;
84993;SDS011;75309;44.830;20.460;2024-03-23T13:01:51;6.20;;;2.70;;
84993;SDS011;75309;44.830;20.460;2024-03-23T13:04:19;6.60;;;3.00;;
84993;SDS011;75309;44.830;20.460;2024-03-23T13:06:48;6.40;;;2.80;;
84993;SDS011;75309;44.830;20.460;2024-03-23T13:09:15;7.70;;;3.10;;
84993;SDS011;75309;44.830;20.460;2024-03-23T13:11:44;5.50;;;2.50;;
84993;SDS011;75309;44.830;20.460;2024-03-23T13:16:46;7.00;;;3.20;;
84993;SDS011;75309;44.830;20.460;2024-03-23T13:19:13;7.30;;;2.90;;
84993;SDS011;75309;44.830;20.460;2024-03-23T13:21:41;5.70;;;2.80;;
84993;SDS011;75309;44.830;20.460;2024-03-23T13:26:37;8.50;;;2.90;;
84993;SDS011;75309;44.830;20.460;2024-03-23T13:29:04;8.20;;;2.80;;
84993;SDS011;75309;44.830;20.460;2024-03-23T13:31:32;5.70;;;2.30;;
84993;SDS011;75309;44.830;20.460;2024-03-23T13:34:01;5.80;;;2.90;;
84993;SDS011;75309;44.830;20.460;2024-03-23T13:38:57;5.90;;;3.00;;
84993;SDS011;75309;44.830;20.460;2024-03-23T13:41:24;6.10;;;2.80;;
84993;SDS011;75309;44.830;20.460;2024-03-23T13:43:53;5.80;;;2.80;;
84993;SDS011;75309;44.830;20.460;2024-03-23T13:46:21;6.80;;;3.00;;
84993;SDS011;75309;44.830;20.460;2024-03-23T13:48:49;6.30;;;2.90;;
84993;SDS011;75309;44.830;20.460;2024-03-23T13:51:22;6.90;;;3.10;;
84993;SDS011;75309;44.830;20.460;2024-03-23T13:53:54;6.60;;;2.70;;
84993;SDS011;75309;44.830;20.460;2024-03-23T13:56:23;7.00;;;3.10;;
84993;SDS011;75309;44.830;20.460;2024-03-23T13:58:51;7.40;;;2.80;;
84993;SDS011;75309;44.830;20.460;2024-03-23T14:01:21;6.10;;;2.70;;
84993;SDS011;75309;44.830;20.460;2024-03-23T14:03:49;7.10;;;3.00;;
84993;SDS011;75309;44.830;20.460;2024-03-23T14:06:17;7.20;;;2.70;;
84993;SDS011;75309;44.830;20.460;2024-03-23T14:08:45;6.10;;;2.90;;
84993;SDS011;75309;44.830;20.460;2024-03-23T14:11:13;7.00;;;2.80;;
84993;SDS011;75309;44.830;20.460;2024-03-23T14:13:41;6.70;;;2.80;;
84993;SDS011;75309;44.830;20.460;2024-03-23T14:16:08;5.40;;;2.50;;
84993;SDS011;75309;44.830;20.460;2024-03-23T14:18:36;6.70;;;2.90;;
84993;SDS011;75309;44.830;20.460;2024-03-23T14:21:04;6.30;;;2.50;;
84993;SDS011;75309;44.830;20.460;2024-03-23T14:23:31;6.60;;;3.00;;
84993;SDS011;75309;44.830;20.460;2024-03-23T14:26:00;7.30;;;2.90;;
84993;SDS011;75309;44.830;20.460;2024-03-23T14:30:56;5.70;;;2.70;;
84993;SDS011;75309;44.830;20.460;2024-03-23T14:35:55;8.70;;;3.30;;
84993;SDS011;75309;44.830;20.460;2024-03-23T14:38:24;7.20;;;3.40;;
84993;SDS011;75309;44.830;20.460;2024-03-23T14:40:53;7.80;;;2.90;;
84993;SDS011;75309;44.830;20.460;2024-03-23T14:43:20;6.40;;;3.00;;
84993;SDS011;75309;44.830;20.460;2024-03-23T14:48:35;6.30;;;2.60;;
84993;SDS011;75309;44.830;20.460;2024-03-23T14:51:04;5.80;;;2.80;;
84993;SDS011;75309;44.830;20.460;2024-03-23T14:53:32;6.50;;;2.70;;
84993;SDS011;75309;44.830;20.460;2024-03-23T14:56:02;6.50;;;2.90;;
84993;SDS011;75309;44.830;20.460;2024-03-23T14:58:30;6.40;;;3.00;;
84993;SDS011;75309;44.830;20.460;2024-03-23T15:01:00;5.10;;;2.40;;
84993;SDS011;75309;44.830;20.460;2024-03-23T15:03:38;5.30;;;2.60;;
84993;SDS011;75309;44.830;20.460;2024-03-23T15:06:06;8.20;;;2.70;;
84993;SDS011;75309;44.830;20.460;2024-03-23T15:08:37;6.20;;;3.20;;
84993;SDS011;75309;44.830;20.460;2024-03-23T15:11:05;5.20;;;2.70;;
84993;SDS011;75309;44.830;20.460;2024-03-23T15:13:34;5.80;;;2.80;;
84993;SDS011;75309;44.830;20.460;2024-03-23T15:16:04;7.00;;;2.80;;
84993;SDS011;75309;44.830;20.460;2024-03-23T15:18:33;6.70;;;2.80;;
84993;SDS011;75309;44.830;20.460;2024-03-23T15:21:03;7.30;;;3.20;;
84993;SDS011;75309;44.830;20.460;2024-03-23T15:23:35;6.50;;;3.00;;
84993;SDS011;75309;44.830;20.460;2024-03-23T15:26:03;7.00;;;3.00;;
84993;SDS011;75309;44.830;20.460;2024-03-23T15:28:33;6.30;;;2.70;;
84993;SDS011;75309;44.830;20.460;2024-03-23T15:31:20;5.80;;;2.70;;
84993;SDS011;75309;44.830;20.460;2024-03-23T15:33:47;6.50;;;3.20;;
84993;SDS011;75309;44.830;20.460;2024-03-23T15:36:19;6.60;;;3.00;;
84993;SDS011;75309;44.830;20.460;2024-03-23T15:41:16;6.80;;;3.10;;
84993;SDS011;75309;44.830;20.460;2024-03-23T15:43:44;6.10;;;2.60;;
84993;SDS011;75309;44.830;20.460;2024-03-23T15:46:12;5.50;;;2.50;;
84993;SDS011;75309;44.830;20.460;2024-03-23T15:48:42;6.60;;;2.80;;
84993;SDS011;75309;44.830;20.460;2024-03-23T15:51:14;6.90;;;2.90;;
84993;SDS011;75309;44.830;20.460;2024-03-23T15:53:42;5.70;;;2.70;;
84993;SDS011;75309;44.830;20.460;2024-03-23T15:56:10;6.00;;;2.60;;
84993;SDS011;75309;44.830;20.460;2024-03-23T15:58:38;7.70;;;3.30;;
84993;SDS011;75309;44.830;20.460;2024-03-23T16:01:09;6.60;;;3.00;;
84993;SDS011;75309;44.830;20.460;2024-03-23T16:03:38;8.00;;;2.50;;
84993;SDS011;75309;44.830;20.460;2024-03-23T16:06:07;7.20;;;3.30;;
84993;SDS011;75309;44.830;20.460;2024-03-23T16:08:36;7.30;;;3.20;;
84993;SDS011;75309;44.830;20.460;2024-03-23T16:11:05;6.30;;;2.90;;
84993;SDS011;75309;44.830;20.460;2024-03-23T16:13:34;6.00;;;2.70;;
84993;SDS011;75309;44.830;20.460;2024-03-23T16:16:05;6.60;;;2.80;;